sensor_id;sensor_type;location;lat;lon;timestamp;pressure;altitude;pressure_sealevel;temperature;humidity
7888;BME280;3989;48.810;9.208;2023-04-28T00:00:35;98510.56;;;9.85;100.00
7888;BME280;3989;48.810;9.208;2023-04-28T00:03:02;98449.47;;;9.61;100.00
7888;BME280;3989;48.810;9.208;2023-04-28T00:05:28;98475.88;;;9.70;100.00
7888;BME280;3989;48.810;9.208;2023-04-28T00:07:55;98609.34;;;10.58;100.00
7888;BME280;3989;48.810;9.208;2023-04-28T00:10:23;98539.41;;;10.19;100.00
7888;BME280;3989;48.810;9.208;2023-04-28T00:12:49;98624.00;;;10.77;100.00
7888;BME280;3989;48.810;9.208;2023-04-28T00:15:16;98608.44;;;10.80;100.00
7888;BME280;3989;48.810;9.208;2023-04-28T00:17:43;98604.19;;;10.86;100.00
7888;BME280;3989;48.810;9.208;2023-04-28T00:20:10;98618.84;;;10.90;100.00
7888;BME280;3989;48.810;9.208;2023-04-28T00:22:37;98571.56;;;10.69;100.00
7888;BME280;3989;48.810;9.208;2023-04-28T00:25:04;98511.81;;;10.41;100.00
7888;BME280;3989;48.810;9.208;2023-04-28T00:27:33;98595.28;;;11.08;100.00
7888;BME280;3989;48.810;9.208;2023-04-28T00:29:59;98404.50;;;9.95;100.00
7888;BME280;3989;48.810;9.208;2023-04-28T00:32:26;98591.19;;;11.12;100.00
7888;BME280;3989;48.810;9.208;2023-04-28T00:34:52;98594.69;;;11.13;100.00
7888;BME280;3989;48.810;9.208;2023-04-28T00:37:20;98596.16;;;11.15;100.00
7888;BME280;3989;48.810;9.208;2023-04-28T00:39:46;98522.09;;;10.73;100.00
7888;BME280;3989;48.810;9.208;2023-04-28T00:42:13;98594.69;;;11.13;100.00
7888;BME280;3989;48.810;9.208;2023-04-28T00:44:41;98594.69;;;11.13;100.00
7888;BME280;3989;48.810;9.208;2023-04-28T00:47:08;98568.88;;;10.98;100.00
7888;BME280;3989;48.810;9.208;2023-04-28T00:49:35;98564.31;;;10.99;100.00
7888;BME280;3989;48.810;9.208;2023-04-28T00:52:05;98577.97;;;11.04;100.00
7888;BME280;3989;48.810;9.208;2023-04-28T00:54:32;98560.56;;;10.93;100.00
7888;BME280;3989;48.810;9.208;2023-04-28T00:56:59;98554.97;;;10.88;100.00
7888;BME280;3989;48.810;9.208;2023-04-28T00:59:27;98559.19;;;10.97;100.00
7888;BME280;3989;48.810;9.208;2023-04-28T01:01:55;98592.69;;;11.15;100.00
7888;BME280;3989;48.810;9.208;2023-04-28T01:04:22;98561.28;;;11.02;100.00
7888;BME280;3989;48.810;9.208;2023-04-28T01:06:50;98574.41;;;11.18;100.00
7888;BME280;3989;48.810;9.208;2023-04-28T01:09:17;98524.19;;;10.92;100.00
7888;BME280;3989;48.810;9.208;2023-04-28T01:11:44;98473.44;;;10.71;100.00
7888;BME280;3989;48.810;9.208;2023-04-28T01:14:10;98514.88;;;11.03;100.00
7888;BME280;3989;48.810;9.208;2023-04-28T01:16:38;98569.50;;;11.36;100.00
7888;BME280;3989;48.810;9.208;2023-04-28T01:19:07;98567.47;;;11.38;100.00
7888;BME280;3989;48.810;9.208;2023-04-28T01:21:38;98550.53;;;11.31;100.00
7888;BME280;3989;48.810;9.208;2023-04-28T01:24:06;98451.72;;;10.74;100.00
7888;BME280;3989;48.810;9.208;2023-04-28T01:26:33;98553.28;;;11.38;100.00
7888;BME280;3989;48.810;9.208;2023-04-28T01:28:59;98547.09;;;11.37;100.00
7888;BME280;3989;48.810;9.208;2023-04-28T01:31:26;98474.75;;;10.96;100.00
7888;BME280;3989;48.810;9.208;2023-04-28T01:33:55;98539.28;;;11.36;100.00
7888;BME280;3989;48.810;9.208;2023-04-28T01:36:21;98532.72;;;11.38;100.00
7888;BME280;3989;48.810;9.208;2023-04-28T01:38:48;98540.81;;;11.45;100.00
7888;BME280;3989;48.810;9.208;2023-04-28T01:41:16;98422.25;;;10.82;100.00
7888;BME280;3989;48.810;9.208;2023-04-28T01:43:42;98533.06;;;11.50;100.00
7888;BME280;3989;48.810;9.208;2023-04-28T01:46:09;98506.59;;;11.34;100.00
7888;BME280;3989;48.810;9.208;2023-04-28T01:48:36;98523.41;;;11.49;100.00
7888;BME280;3989;48.810;9.208;2023-04-28T01:51:03;98531.66;;;11.54;100.00
7888;BME280;3989;48.810;9.208;2023-04-28T01:53:29;98529.63;;;11.56;100.00
7888;BME280;3989;48.810;9.208;2023-04-28T01:55:56;98523.25;;;11.57;100.00
7888;BME280;3989;48.810;9.208;2023-04-28T01:58:24;98485.72;;;11.23;100.00
7888;BME280;3989;48.810;9.208;2023-04-28T02:00:51;98519.06;;;11.48;100.00
7888;BME280;3989;48.810;9.208;2023-04-28T02:03:18;98414.88;;;10.84;100.00
7888;BME280;3989;48.810;9.208;2023-04-28T02:05:44;98400.41;;;10.58;100.00
7888;BME280;3989;48.810;9.208;2023-04-28T02:08:11;98408.56;;;10.71;100.00
7888;BME280;3989;48.810;9.208;2023-04-28T02:10:37;98369.69;;;10.47;100.00
7888;BME280;3989;48.810;9.208;2023-04-28T02:13:04;98475.28;;;11.06;100.00
7888;BME280;3989;48.810;9.208;2023-04-28T02:15:32;98516.47;;;11.33;100.00
7888;BME280;3989;48.810;9.208;2023-04-28T02:17:59;98509.84;;;11.29;100.00
7888;BME280;3989;48.810;9.208;2023-04-28T02:20:26;98394.31;;;10.64;100.00
7888;BME280;3989;48.810;9.208;2023-04-28T02:22:53;98444.31;;;10.91;100.00
7888;BME280;3989;48.810;9.208;2023-04-28T02:25:19;98485.13;;;11.06;100.00
7888;BME280;3989;48.810;9.208;2023-04-28T02:27:46;98496.41;;;11.23;100.00
7888;BME280;3989;48.810;9.208;2023-04-28T02:30:13;98500.53;;;11.25;100.00
7888;BME280;3989;48.810;9.208;2023-04-28T02:32:41;98437.44;;;10.82;100.00
7888;BME280;3989;48.810;9.208;2023-04-28T02:35:07;98408.63;;;10.77;100.00
7888;BME280;3989;48.810;9.208;2023-04-28T02:37:34;98474.78;;;11.18;100.00
7888;BME280;3989;48.810;9.208;2023-04-28T02:40:01;98486.63;;;11.30;100.00
7888;BME280;3989;48.810;9.208;2023-04-28T02:42:27;98432.03;;;10.96;100.00
7888;BME280;3989;48.810;9.208;2023-04-28T02:44:54;98491.38;;;11.34;100.00
7888;BME280;3989;48.810;9.208;2023-04-28T02:47:20;98511.75;;;11.35;100.00
7888;BME280;3989;48.810;9.208;2023-04-28T02:49:48;98475.81;;;11.17;100.00
7888;BME280;3989;48.810;9.208;2023-04-28T02:52:15;98449.78;;;11.04;100.00
7888;BME280;3989;48.810;9.208;2023-04-28T02:54:41;98454.94;;;11.05;100.00
7888;BME280;3989;48.810;9.208;2023-04-28T02:57:12;98396.50;;;10.75;100.00
7888;BME280;3989;48.810;9.208;2023-04-28T02:59:39;98370.50;;;10.62;100.00
7888;BME280;3989;48.810;9.208;2023-04-28T03:02:06;98375.00;;;10.62;100.00
7888;BME280;3989;48.810;9.208;2023-04-28T03:04:33;98501.38;;;11.47;100.00
7888;BME280;3989;48.810;9.208;2023-04-28T03:07:01;98389.25;;;10.69;100.00
7888;BME280;3989;48.810;9.208;2023-04-28T03:09:27;98504.88;;;11.47;100.00
7888;BME280;3989;48.810;9.208;2023-04-28T03:11:54;98476.94;;;11.29;100.00
7888;BME280;3989;48.810;9.208;2023-04-28T03:14:20;98504.69;;;11.49;100.00
7888;BME280;3989;48.810;9.208;2023-04-28T03:16:47;98514.22;;;11.37;100.00
7888;BME280;3989;48.810;9.208;2023-04-28T03:19:13;98510.53;;;11.38;100.00
7888;BME280;3989;48.810;9.208;2023-04-28T03:21:40;98440.88;;;10.97;100.00
7888;BME280;3989;48.810;9.208;2023-04-28T03:24:08;98498.31;;;11.29;100.00
7888;BME280;3989;48.810;9.208;2023-04-28T03:26:35;98434.25;;;10.93;100.00
7888;BME280;3989;48.810;9.208;2023-04-28T03:29:01;98493.19;;;11.27;100.00
7888;BME280;3989;48.810;9.208;2023-04-28T03:31:28;98490.69;;;11.26;100.00
7888;BME280;3989;48.810;9.208;2023-04-28T03:33:54;98432.09;;;10.82;100.00
7888;BME280;3989;48.810;9.208;2023-04-28T03:36:22;98477.72;;;11.23;100.00
7888;BME280;3989;48.810;9.208;2023-04-28T03:38:49;98464.13;;;11.18;100.00
7888;BME280;3989;48.810;9.208;2023-04-28T03:41:17;98395.34;;;10.63;100.00
7888;BME280;3989;48.810;9.208;2023-04-28T03:43:43;98474.34;;;11.14;100.00
7888;BME280;3989;48.810;9.208;2023-04-28T03:46:10;98424.91;;;10.82;100.00
7888;BME280;3989;48.810;9.208;2023-04-28T03:48:37;98479.09;;;11.19;100.00
7888;BME280;3989;48.810;9.208;2023-04-28T03:51:04;98422.59;;;10.79;100.00
7888;BME280;3989;48.810;9.208;2023-04-28T03:53:30;98478.84;;;11.14;100.00
7888;BME280;3989;48.810;9.208;2023-04-28T03:55:57;98476.56;;;11.11;100.00
7888;BME280;3989;48.810;9.208;2023-04-28T03:58:25;98461.53;;;11.10;100.00
7888;BME280;3989;48.810;9.208;2023-04-28T04:00:52;98459.72;;;11.10;100.00
7888;BME280;3989;48.810;9.208;2023-04-28T04:03:19;98384.38;;;10.58;100.00
7888;BME280;3989;48.810;9.208;2023-04-28T04:05:49;98469.19;;;11.13;100.00
7888;BME280;3989;48.810;9.208;2023-04-28T04:08:16;98458.88;;;11.10;100.00
7888;BME280;3989;48.810;9.208;2023-04-28T04:10:43;98462.84;;;11.14;100.00
7888;BME280;3989;48.810;9.208;2023-04-28T04:13:10;98454.81;;;11.14;100.00
7888;BME280;3989;48.810;9.208;2023-04-28T04:15:38;98462.06;;;11.20;100.00
7888;BME280;3989;48.810;9.208;2023-04-28T04:18:05;98457.72;;;11.19;100.00
7888;BME280;3989;48.810;9.208;2023-04-28T04:20:31;98436.50;;;11.11;100.00
7888;BME280;3989;48.810;9.208;2023-04-28T04:22:58;98370.75;;;10.67;100.00
7888;BME280;3989;48.810;9.208;2023-04-28T04:25:25;98349.78;;;10.64;100.00
7888;BME280;3989;48.810;9.208;2023-04-28T04:27:52;98346.28;;;10.64;100.00
7888;BME280;3989;48.810;9.208;2023-04-28T04:30:19;98402.28;;;10.99;100.00
7888;BME280;3989;48.810;9.208;2023-04-28T04:32:47;98458.06;;;11.30;100.00
7888;BME280;3989;48.810;9.208;2023-04-28T04:35:13;98349.59;;;10.66;100.00
7888;BME280;3989;48.810;9.208;2023-04-28T04:37:40;98455.84;;;11.34;100.00
7888;BME280;3989;48.810;9.208;2023-04-28T04:40:08;98447.31;;;11.24;100.00
7888;BME280;3989;48.810;9.208;2023-04-28T04:42:34;98443.16;;;11.21;100.00
7888;BME280;3989;48.810;9.208;2023-04-28T04:45:01;98455.41;;;11.30;100.00
7888;BME280;3989;48.810;9.208;2023-04-28T04:47:27;98454.75;;;11.28;100.00
7888;BME280;3989;48.810;9.208;2023-04-28T04:49:56;98373.75;;;10.79;100.00
7888;BME280;3989;48.810;9.208;2023-04-28T04:52:22;98457.03;;;11.31;100.00
7888;BME280;3989;48.810;9.208;2023-04-28T04:54:49;98342.59;;;10.65;100.00
7888;BME280;3989;48.810;9.208;2023-04-28T04:57:16;98393.69;;;10.83;100.00
7888;BME280;3989;48.810;9.208;2023-04-28T04:59:42;98454.50;;;11.23;100.00
7888;BME280;3989;48.810;9.208;2023-04-28T05:02:10;98417.28;;;11.00;100.00
7888;BME280;3989;48.810;9.208;2023-04-28T05:04:36;98358.44;;;10.66;100.00
7888;BME280;3989;48.810;9.208;2023-04-28T05:07:05;98272.84;;;10.11;100.00
7888;BME280;3989;48.810;9.208;2023-04-28T05:09:31;98375.06;;;10.68;100.00
7888;BME280;3989;48.810;9.208;2023-04-28T05:11:58;98441.09;;;11.17;100.00
7888;BME280;3989;48.810;9.208;2023-04-28T05:14:25;98342.53;;;10.58;100.00
7888;BME280;3989;48.810;9.208;2023-04-28T05:16:51;98367.31;;;10.73;100.00
7888;BME280;3989;48.810;9.208;2023-04-28T05:19:18;98278.16;;;10.25;100.00
7888;BME280;3989;48.810;9.208;2023-04-28T05:21:45;98427.13;;;11.21;100.00
7888;BME280;3989;48.810;9.208;2023-04-28T05:24:14;98445.22;;;11.40;100.00
7888;BME280;3989;48.810;9.208;2023-04-28T05:26:41;98406.84;;;11.05;100.00
7888;BME280;3989;48.810;9.208;2023-04-28T05:29:07;98461.66;;;11.44;100.00
7888;BME280;3989;48.810;9.208;2023-04-28T05:31:34;98455.38;;;11.51;100.00
7888;BME280;3989;48.810;9.208;2023-04-28T05:34:00;98460.59;;;11.59;100.00
7888;BME280;3989;48.810;9.208;2023-04-28T05:36:27;98308.81;;;10.72;100.00
7888;BME280;3989;48.810;9.208;2023-04-28T05:38:54;98457.31;;;11.64;100.00
7888;BME280;3989;48.810;9.208;2023-04-28T05:41:22;98460.66;;;11.66;100.00
7888;BME280;3989;48.810;9.208;2023-04-28T05:43:49;98313.00;;;10.81;100.00
7888;BME280;3989;48.810;9.208;2023-04-28T05:46:16;98426.75;;;11.45;100.00
7888;BME280;3989;48.810;9.208;2023-04-28T05:48:43;98455.47;;;11.65;100.00
7888;BME280;3989;48.810;9.208;2023-04-28T05:51:09;98444.78;;;11.65;100.00
7888;BME280;3989;48.810;9.208;2023-04-28T05:53:36;98456.19;;;11.73;100.00
7888;BME280;3989;48.810;9.208;2023-04-28T05:56:03;98452.72;;;11.73;100.00
7888;BME280;3989;48.810;9.208;2023-04-28T05:58:31;98454.56;;;11.72;100.00
7888;BME280;3989;48.810;9.208;2023-04-28T06:00:58;98444.88;;;11.71;100.00
7888;BME280;3989;48.810;9.208;2023-04-28T06:03:24;98442.34;;;11.70;100.00
7888;BME280;3989;48.810;9.208;2023-04-28T06:05:51;98424.81;;;11.60;100.00
7888;BME280;3989;48.810;9.208;2023-04-28T06:08:18;98451.22;;;11.70;100.00
7888;BME280;3989;48.810;9.208;2023-04-28T06:10:44;98437.88;;;11.70;100.00
7888;BME280;3989;48.810;9.208;2023-04-28T06:13:11;98423.63;;;11.63;100.00
7888;BME280;3989;48.810;9.208;2023-04-28T06:15:39;98419.28;;;11.62;100.00
7888;BME280;3989;48.810;9.208;2023-04-28T06:18:05;98402.88;;;11.44;100.00
7888;BME280;3989;48.810;9.208;2023-04-28T06:20:34;98434.72;;;11.67;100.00
7888;BME280;3989;48.810;9.208;2023-04-28T06:23:00;98427.03;;;11.57;100.00
7888;BME280;3989;48.810;9.208;2023-04-28T06:25:28;98409.38;;;11.35;100.00
7888;BME280;3989;48.810;9.208;2023-04-28T06:27:55;98417.66;;;11.40;100.00
7888;BME280;3989;48.810;9.208;2023-04-28T06:30:22;98420.34;;;11.40;100.00
7888;BME280;3989;48.810;9.208;2023-04-28T06:32:50;98438.94;;;11.54;100.00
7888;BME280;3989;48.810;9.208;2023-04-28T06:35:17;98430.75;;;11.56;100.00
7888;BME280;3989;48.810;9.208;2023-04-28T06:37:43;98387.78;;;11.30;100.00
7888;BME280;3989;48.810;9.208;2023-04-28T06:40:10;98436.59;;;11.66;100.00
7888;BME280;3989;48.810;9.208;2023-04-28T06:42:37;98423.72;;;11.76;100.00
7888;BME280;3989;48.810;9.208;2023-04-28T06:45:04;98401.94;;;11.73;100.00
7888;BME280;3989;48.810;9.208;2023-04-28T06:47:31;98329.19;;;11.28;100.00
7888;BME280;3989;48.810;9.208;2023-04-28T06:49:59;98430.44;;;11.93;100.00
7888;BME280;3989;48.810;9.208;2023-04-28T06:52:26;98412.69;;;11.86;100.00
7888;BME280;3989;48.810;9.208;2023-04-28T06:54:53;98394.09;;;11.71;100.00
7888;BME280;3989;48.810;9.208;2023-04-28T06:57:20;98407.50;;;11.78;100.00
7888;BME280;3989;48.810;9.208;2023-04-28T06:59:47;98422.38;;;11.87;100.00
7888;BME280;3989;48.810;9.208;2023-04-28T07:02:14;98359.56;;;11.48;100.00
7888;BME280;3989;48.810;9.208;2023-04-28T07:04:40;98345.31;;;11.41;100.00
7888;BME280;3989;48.810;9.208;2023-04-28T07:07:08;98325.34;;;11.31;100.00
7888;BME280;3989;48.810;9.208;2023-04-28T07:09:35;98334.59;;;11.35;100.00
7888;BME280;3989;48.810;9.208;2023-04-28T07:12:02;98390.28;;;11.87;100.00
7888;BME280;3989;48.810;9.208;2023-04-28T07:14:29;98343.63;;;11.62;100.00
7888;BME280;3989;48.810;9.208;2023-04-28T07:16:56;98400.88;;;12.01;100.00
7888;BME280;3989;48.810;9.208;2023-04-28T07:19:22;98296.41;;;11.41;100.00
7888;BME280;3989;48.810;9.208;2023-04-28T07:21:52;98396.16;;;12.03;100.00
7888;BME280;3989;48.810;9.208;2023-04-28T07:24:19;98283.00;;;11.34;100.00
7888;BME280;3989;48.810;9.208;2023-04-28T07:26:47;98290.59;;;11.31;100.00
7888;BME280;3989;48.810;9.208;2023-04-28T07:29:14;98404.19;;;12.10;100.00
7888;BME280;3989;48.810;9.208;2023-04-28T07:31:40;98319.25;;;11.71;100.00
7888;BME280;3989;48.810;9.208;2023-04-28T07:34:07;98333.69;;;11.83;100.00
7888;BME280;3989;48.810;9.208;2023-04-28T07:36:34;98363.22;;;12.03;100.00
7888;BME280;3989;48.810;9.208;2023-04-28T07:39:01;98326.91;;;11.81;100.00
7888;BME280;3989;48.810;9.208;2023-04-28T07:41:29;98335.41;;;11.91;100.00
7888;BME280;3989;48.810;9.208;2023-04-28T07:43:55;98323.47;;;11.93;100.00
7888;BME280;3989;48.810;9.208;2023-04-28T07:46:22;98342.47;;;12.05;100.00
7888;BME280;3989;48.810;9.208;2023-04-28T07:48:49;98367.22;;;12.20;100.00
7888;BME280;3989;48.810;9.208;2023-04-28T07:51:15;98322.69;;;11.99;100.00
7888;BME280;3989;48.810;9.208;2023-04-28T07:53:42;98382.75;;;12.44;100.00
7888;BME280;3989;48.810;9.208;2023-04-28T07:56:09;98386.06;;;12.46;100.00
7888;BME280;3989;48.810;9.208;2023-04-28T07:58:37;98307.03;;;11.96;100.00
7888;BME280;3989;48.810;9.208;2023-04-28T08:01:04;98303.47;;;11.83;100.00
7888;BME280;3989;48.810;9.208;2023-04-28T08:03:31;98384.06;;;12.14;100.00
7888;BME280;3989;48.810;9.208;2023-04-28T08:05:57;98413.59;;;12.34;100.00
7888;BME280;3989;48.810;9.208;2023-04-28T08:08:24;98364.22;;;12.02;100.00
7888;BME280;3989;48.810;9.208;2023-04-28T08:10:50;98274.22;;;11.40;100.00
7888;BME280;3989;48.810;9.208;2023-04-28T08:13:17;98355.75;;;11.85;100.00
7888;BME280;3989;48.810;9.208;2023-04-28T08:15:46;98411.00;;;12.13;100.00
7888;BME280;3989;48.810;9.208;2023-04-28T08:18:12;98427.00;;;12.06;100.00
7888;BME280;3989;48.810;9.208;2023-04-28T08:20:39;98432.75;;;12.03;100.00
7888;BME280;3989;48.810;9.208;2023-04-28T08:23:06;98425.66;;;11.82;100.00
7888;BME280;3989;48.810;9.208;2023-04-28T08:25:33;98413.94;;;11.62;100.00
7888;BME280;3989;48.810;9.208;2023-04-28T08:27:59;98451.50;;;11.75;100.00
7888;BME280;3989;48.810;9.208;2023-04-28T08:30:27;98374.38;;;11.23;100.00
7888;BME280;3989;48.810;9.208;2023-04-28T08:32:56;98386.00;;;11.37;100.00
7888;BME280;3989;48.810;9.208;2023-04-28T08:35:22;98326.56;;;11.07;100.00
7888;BME280;3989;48.810;9.208;2023-04-28T08:37:50;98294.66;;;10.99;100.00
7888;BME280;3989;48.810;9.208;2023-04-28T08:40:17;98426.13;;;11.99;100.00
7888;BME280;3989;48.810;9.208;2023-04-28T08:42:44;98413.19;;;12.02;100.00
7888;BME280;3989;48.810;9.208;2023-04-28T08:45:12;98424.72;;;12.03;100.00
7888;BME280;3989;48.810;9.208;2023-04-28T08:47:40;98405.00;;;12.04;100.00
7888;BME280;3989;48.810;9.208;2023-04-28T08:50:12;98444.25;;;12.38;100.00
7888;BME280;3989;48.810;9.208;2023-04-28T08:52:40;98448.47;;;12.53;100.00
7888;BME280;3989;48.810;9.208;2023-04-28T08:55:09;98371.88;;;12.05;100.00
7888;BME280;3989;48.810;9.208;2023-04-28T08:57:38;98208.72;;;11.17;100.00
7888;BME280;3989;48.810;9.208;2023-04-28T09:00:05;98263.41;;;11.55;100.00
7888;BME280;3989;48.810;9.208;2023-04-28T09:02:32;98463.88;;;13.05;100.00
7888;BME280;3989;48.810;9.208;2023-04-28T09:04:59;98459.22;;;13.21;100.00
7888;BME280;3989;48.810;9.208;2023-04-28T09:07:27;98467.91;;;13.36;100.00
7888;BME280;3989;48.810;9.208;2023-04-28T09:10:15;98469.34;;;13.32;100.00
7888;BME280;3989;48.810;9.208;2023-04-28T09:12:42;98431.41;;;13.08;100.00
7888;BME280;3989;48.810;9.208;2023-04-28T09:15:09;98472.66;;;13.27;100.00
7888;BME280;3989;48.810;9.208;2023-04-28T09:17:46;98448.50;;;13.14;100.00
7888;BME280;3989;48.810;9.208;2023-04-28T09:20:18;98439.03;;;13.11;100.00
7888;BME280;3989;48.810;9.208;2023-04-28T09:22:47;98344.91;;;12.60;100.00
7888;BME280;3989;48.810;9.208;2023-04-28T09:25:15;98475.97;;;13.42;100.00
7888;BME280;3989;48.810;9.208;2023-04-28T09:27:42;98322.91;;;12.65;100.00
7888;BME280;3989;48.810;9.208;2023-04-28T09:30:09;98238.59;;;12.22;100.00
7888;BME280;3989;48.810;9.208;2023-04-28T09:32:38;98425.44;;;13.52;100.00
7888;BME280;3989;48.810;9.208;2023-04-28T09:35:05;98360.28;;;13.32;100.00
7888;BME280;3989;48.810;9.208;2023-04-28T09:37:33;98435.53;;;13.90;100.00
7888;BME280;3989;48.810;9.208;2023-04-28T09:40:07;98472.25;;;14.09;100.00
7888;BME280;3989;48.810;9.208;2023-04-28T09:42:35;98472.22;;;14.15;100.00
7888;BME280;3989;48.810;9.208;2023-04-28T09:45:03;98464.38;;;14.27;100.00
7888;BME280;3989;48.810;9.208;2023-04-28T09:47:32;98350.59;;;13.51;100.00
7888;BME280;3989;48.810;9.208;2023-04-28T09:50:02;98459.22;;;14.12;100.00
7888;BME280;3989;48.810;9.208;2023-04-28T09:52:29;98455.34;;;14.08;100.00
7888;BME280;3989;48.810;9.208;2023-04-28T09:54:56;98463.41;;;14.08;100.00
7888;BME280;3989;48.810;9.208;2023-04-28T09:57:29;98328.78;;;13.34;100.00
7888;BME280;3989;48.810;9.208;2023-04-28T09:59:57;98444.34;;;14.43;100.00
7888;BME280;3989;48.810;9.208;2023-04-28T10:02:24;98416.09;;;14.78;100.00
7888;BME280;3989;48.810;9.208;2023-04-28T10:04:51;98440.28;;;15.47;100.00
7888;BME280;3989;48.810;9.208;2023-04-28T10:07:19;98429.13;;;16.18;100.00
7888;BME280;3989;48.810;9.208;2023-04-28T10:09:47;98450.88;;;16.59;100.00
7888;BME280;3989;48.810;9.208;2023-04-28T10:12:15;98437.09;;;16.67;100.00
7888;BME280;3989;48.810;9.208;2023-04-28T10:14:44;98272.06;;;15.76;100.00
7888;BME280;3989;48.810;9.208;2023-04-28T10:17:12;98393.44;;;16.04;100.00
7888;BME280;3989;48.810;9.208;2023-04-28T10:19:39;98337.47;;;15.52;100.00
7888;BME280;3989;48.810;9.208;2023-04-28T10:22:23;98460.16;;;16.20;100.00
7888;BME280;3989;48.810;9.208;2023-04-28T10:25:15;98325.22;;;15.56;100.00
7888;BME280;3989;48.810;9.208;2023-04-28T10:27:47;98419.72;;;16.45;100.00
7888;BME280;3989;48.810;9.208;2023-04-28T10:30:17;98237.00;;;15.64;100.00
7888;BME280;3989;48.810;9.208;2023-04-28T10:32:44;98418.88;;;17.41;100.00
7888;BME280;3989;48.810;9.208;2023-04-28T10:35:41;98358.03;;;17.45;100.00
7888;BME280;3989;48.810;9.208;2023-04-28T10:38:10;98253.69;;;16.80;100.00
7888;BME280;3989;48.810;9.208;2023-04-28T10:40:38;98404.97;;;17.55;100.00
7888;BME280;3989;48.810;9.208;2023-04-28T10:43:06;98432.91;;;17.61;100.00
7888;BME280;3989;48.810;9.208;2023-04-28T10:46:00;98447.09;;;17.56;100.00
7888;BME280;3989;48.810;9.208;2023-04-28T10:49:01;98447.09;;;17.56;100.00
7888;BME280;3989;48.810;9.208;2023-04-28T10:51:28;98454.63;;;17.77;100.00
7888;BME280;3989;48.810;9.208;2023-04-28T10:54:15;98431.56;;;17.93;100.00
7888;BME280;3989;48.810;9.208;2023-04-28T10:57:13;98449.28;;;18.12;100.00
7888;BME280;3989;48.810;9.208;2023-04-28T10:59:40;98459.03;;;18.25;100.00
7888;BME280;3989;48.810;9.208;2023-04-28T11:02:41;98450.78;;;18.20;100.00
7888;BME280;3989;48.810;9.208;2023-04-28T11:05:12;98454.06;;;17.75;100.00
7888;BME280;3989;48.810;9.208;2023-04-28T11:07:39;98382.91;;;17.05;100.00
7888;BME280;3989;48.810;9.208;2023-04-28T11:10:07;98367.59;;;16.88;100.00
7888;BME280;3989;48.810;9.208;2023-04-28T11:12:34;98447.44;;;17.18;100.00
7888;BME280;3989;48.810;9.208;2023-04-28T11:15:11;98423.09;;;17.07;100.00
7888;BME280;3989;48.810;9.208;2023-04-28T11:17:40;98445.09;;;17.22;100.00
7888;BME280;3989;48.810;9.208;2023-04-28T11:20:14;98348.72;;;16.88;100.00
7888;BME280;3989;48.810;9.208;2023-04-28T11:22:50;98443.25;;;17.64;100.00
7888;BME280;3989;48.810;9.208;2023-04-28T11:25:19;98308.97;;;16.71;100.00
7888;BME280;3989;48.810;9.208;2023-04-28T11:27:46;98413.03;;;17.44;100.00
7888;BME280;3989;48.810;9.208;2023-04-28T11:30:20;98425.97;;;17.65;100.00
7888;BME280;3989;48.810;9.208;2023-04-28T11:32:49;98303.13;;;17.27;100.00
7888;BME280;3989;48.810;9.208;2023-04-28T11:35:16;98317.00;;;17.66;100.00
7888;BME280;3989;48.810;9.208;2023-04-28T11:37:43;98419.66;;;18.17;100.00
7888;BME280;3989;48.810;9.208;2023-04-28T11:40:09;98439.06;;;18.14;100.00
7888;BME280;3989;48.810;9.208;2023-04-28T11:42:46;98435.44;;;17.44;100.00
7888;BME280;3989;48.810;9.208;2023-04-28T11:45:12;98391.19;;;16.74;100.00
7888;BME280;3989;48.810;9.208;2023-04-28T11:47:39;98439.53;;;17.05;100.00
7888;BME280;3989;48.810;9.208;2023-04-28T11:50:08;98430.72;;;17.10;100.00
7888;BME280;3989;48.810;9.208;2023-04-28T11:52:47;98435.84;;;17.29;100.00
7888;BME280;3989;48.810;9.208;2023-04-28T11:55:15;98414.78;;;17.38;100.00
7888;BME280;3989;48.810;9.208;2023-04-28T11:57:42;98430.34;;;17.77;100.00
7888;BME280;3989;48.810;9.208;2023-04-28T12:00:12;98434.19;;;17.58;100.00
7888;BME280;3989;48.810;9.208;2023-04-28T12:02:43;98421.47;;;17.47;100.00
7888;BME280;3989;48.810;9.208;2023-04-28T12:05:11;98415.38;;;17.52;100.00
7888;BME280;3989;48.810;9.208;2023-04-28T12:07:41;98429.03;;;17.57;100.00
7888;BME280;3989;48.810;9.208;2023-04-28T12:10:10;98417.38;;;17.45;100.00
7888;BME280;3989;48.810;9.208;2023-04-28T12:12:37;98430.03;;;17.44;100.00
7888;BME280;3989;48.810;9.208;2023-04-28T12:15:06;98426.22;;;17.63;100.00
7888;BME280;3989;48.810;9.208;2023-04-28T12:17:34;98406.34;;;17.46;100.00
7888;BME280;3989;48.810;9.208;2023-04-28T12:20:03;98429.41;;;17.30;100.00
7888;BME280;3989;48.810;9.208;2023-04-28T12:22:42;98373.78;;;16.76;100.00
7888;BME280;3989;48.810;9.208;2023-04-28T12:25:10;98424.41;;;17.16;100.00
7888;BME280;3989;48.810;9.208;2023-04-28T12:27:38;98403.63;;;16.75;100.00
7888;BME280;3989;48.810;9.208;2023-04-28T12:30:26;98426.09;;;16.51;100.00
7888;BME280;3989;48.810;9.208;2023-04-28T12:32:52;98426.81;;;16.21;100.00
7888;BME280;3989;48.810;9.208;2023-04-28T12:35:20;98345.59;;;15.39;100.00
7888;BME280;3989;48.810;9.208;2023-04-28T12:37:49;98391.88;;;15.54;100.00
7888;BME280;3989;48.810;9.208;2023-04-28T12:40:15;98441.25;;;15.84;100.00
7888;BME280;3989;48.810;9.208;2023-04-28T12:42:42;98458.66;;;15.82;100.00
7888;BME280;3989;48.810;9.208;2023-04-28T12:45:08;98454.16;;;15.75;100.00
7888;BME280;3989;48.810;9.208;2023-04-28T12:47:35;98449.75;;;15.81;100.00
7888;BME280;3989;48.810;9.208;2023-04-28T12:50:03;98463.06;;;15.76;100.00
7888;BME280;3989;48.810;9.208;2023-04-28T12:52:29;98459.53;;;15.51;100.00
7888;BME280;3989;48.810;9.208;2023-04-28T12:54:59;98449.63;;;15.07;100.00
7888;BME280;3989;48.810;9.208;2023-04-28T12:57:25;98457.66;;;14.76;100.00
7888;BME280;3989;48.810;9.208;2023-04-28T12:59:53;98415.63;;;14.50;100.00
7888;BME280;3989;48.810;9.208;2023-04-28T13:02:20;98443.75;;;14.85;100.00
7888;BME280;3989;48.810;9.208;2023-04-28T13:04:47;98439.16;;;14.99;100.00
7888;BME280;3989;48.810;9.208;2023-04-28T13:07:16;98416.72;;;15.43;100.00
7888;BME280;3989;48.810;9.208;2023-04-28T13:09:42;98372.44;;;15.45;100.00
7888;BME280;3989;48.810;9.208;2023-04-28T13:12:10;98411.94;;;15.76;100.00
7888;BME280;3989;48.810;9.208;2023-04-28T13:14:37;98334.19;;;15.50;100.00